createdAt,value
2017-08-05T00:00:47.160Z,0
2017-08-05T00:01:47.503Z,0
2017-08-05T00:02:46.515Z,0
2017-08-05T00:03:47.367Z,0
2017-08-05T00:04:48.707Z,0
2017-08-05T00:05:48.710Z,0
2017-08-05T00:06:47.144Z,0
2017-08-05T00:07:47.133Z,0
2017-08-05T00:08:48.136Z,0
2017-08-05T00:09:47.268Z,0
2017-08-05T00:10:47.114Z,0
2017-08-05T00:11:46.814Z,0
2017-08-05T00:12:47.441Z,0
2017-08-05T00:13:48.235Z,0
2017-08-05T00:14:47.094Z,0
2017-08-05T00:15:47.122Z,0
2017-08-05T00:16:47.128Z,0
2017-08-05T00:17:48.452Z,0
2017-08-05T00:18:48.323Z,0
2017-08-05T00:19:46.754Z,0
2017-08-05T00:20:47.086Z,0
2017-08-05T00:21:47.081Z,0
2017-08-05T00:22:48.110Z,0
2017-08-05T00:23:46.674Z,0
2017-08-05T00:24:47.073Z,0
2017-08-05T00:25:47.205Z,0
2017-08-05T00:26:48.383Z,0
2017-08-05T00:27:47.596Z,0
2017-08-05T00:28:47.065Z,0
2017-08-05T00:29:47.393Z,0
2017-08-05T00:30:47.610Z,0
2017-08-05T00:31:48.364Z,0
2017-08-05T00:32:47.360Z,0
2017-08-05T00:33:47.572Z,0
2017-08-05T00:34:47.348Z,0
2017-08-05T00:35:47.091Z,0
2017-08-05T00:36:47.032Z,0
2017-08-05T00:37:49.133Z,0
2017-08-05T00:38:47.542Z,0
2017-08-05T00:39:46.733Z,0
2017-08-05T00:40:47.021Z,0
2017-08-05T00:41:46.667Z,0
2017-08-05T00:42:46.998Z,0
2017-08-05T00:43:48.799Z,0
2017-08-05T00:44:48.608Z,0
2017-08-05T00:45:47.314Z,0
2017-08-05T00:46:46.985Z,0
2017-08-05T00:47:46.968Z,0
2017-08-05T00:48:46.967Z,0
2017-08-05T00:49:47.397Z,0
2017-08-05T00:50:47.291Z,0
2017-08-05T00:51:48.233Z,0
2017-08-05T00:52:47.490Z,0
2017-08-05T00:53:46.642Z,0
2017-08-05T00:54:47.415Z,0
2017-08-05T00:55:46.610Z,0
2017-08-05T00:56:48.097Z,0
2017-08-05T00:57:46.949Z,0
2017-08-05T00:58:47.375Z,0
2017-08-05T00:59:46.976Z,0
2017-08-05T01:00:47.248Z,0
2017-08-05T01:01:46.933Z,0
2017-08-05T01:02:47.225Z,0
2017-08-05T01:03:47.000Z,0
2017-08-05T01:04:47.220Z,0
2017-08-05T01:05:47.551Z,0
2017-08-05T01:06:46.900Z,0
2017-08-05T01:07:46.571Z,0
2017-08-05T01:08:47.221Z,0
2017-08-05T01:09:46.871Z,0
2017-08-05T01:10:47.981Z,0
2017-08-05T01:11:47.900Z,0
2017-08-05T01:12:47.178Z,0
2017-08-05T01:13:47.184Z,0
2017-08-05T01:14:46.869Z,0
2017-08-05T01:15:47.747Z,0
2017-08-05T01:16:46.839Z,0
2017-08-05T01:17:46.569Z,0
2017-08-05T01:18:47.176Z,0
2017-08-05T01:19:47.749Z,0
2017-08-05T01:20:47.734Z,0
2017-08-05T01:21:47.258Z,0
2017-08-05T01:22:47.137Z,0
2017-08-05T01:23:47.164Z,0
2017-08-05T01:24:48.007Z,0
2017-08-05T01:25:48.301Z,0
2017-08-05T01:26:46.810Z,0
2017-08-05T01:27:47.040Z,0
2017-08-05T01:28:46.532Z,0
2017-08-05T01:29:46.787Z,0
2017-08-05T01:30:46.784Z,0
2017-08-05T01:31:46.551Z,0
2017-08-05T01:32:47.875Z,0
2017-08-05T01:33:46.903Z,0
2017-08-05T01:34:46.793Z,0
2017-08-05T01:35:46.470Z,0
2017-08-05T01:36:47.098Z,0
2017-08-05T01:37:48.221Z,0
2017-08-05T01:38:47.912Z,0
2017-08-05T01:39:46.566Z,0
2017-08-05T01:40:46.956Z,0
2017-08-05T01:41:46.736Z,0
2017-08-05T01:42:46.422Z,0
2017-08-05T01:43:46.756Z,0
2017-08-05T01:44:47.810Z,0
2017-08-05T01:45:47.043Z,0
2017-08-05T01:46:46.727Z,0
2017-08-05T01:47:47.052Z,0
2017-08-05T01:48:48.632Z,0
2017-08-05T01:49:46.392Z,0
2017-08-05T01:50:47.762Z,0
2017-08-05T01:51:46.377Z,0
2017-08-05T01:52:46.708Z,0
2017-08-05T01:53:46.703Z,0
2017-08-05T01:54:47.973Z,0
2017-08-05T01:55:48.068Z,0
2017-08-05T01:56:46.669Z,0
2017-08-05T01:57:46.708Z,0
2017-08-05T01:58:46.364Z,0
2017-08-05T01:59:46.480Z,0
2017-08-05T02:00:46.702Z,0
2017-08-05T02:01:47.266Z,0
2017-08-05T02:02:48.218Z,0
2017-08-05T02:03:46.750Z,0
2017-08-05T02:04:46.312Z,0
2017-08-05T02:05:46.651Z,0
2017-08-05T02:06:46.948Z,0
2017-08-05T02:07:47.628Z,0
2017-08-05T02:08:47.084Z,0
2017-08-05T02:09:46.488Z,0
2017-08-05T02:10:46.296Z,0
2017-08-05T02:11:46.957Z,0
2017-08-05T02:12:46.594Z,0
2017-08-05T02:13:46.270Z,0
2017-08-05T02:14:46.909Z,0
2017-08-05T02:15:46.898Z,0
2017-08-05T02:16:46.263Z,0
2017-08-05T02:17:46.256Z,0
2017-08-05T02:18:46.269Z,0
2017-08-05T02:19:46.262Z,0
2017-08-05T02:20:46.235Z,0
2017-08-05T02:21:46.567Z,0
2017-08-05T02:22:46.566Z,0
2017-08-05T02:23:46.562Z,0
2017-08-05T02:24:46.225Z,0
2017-08-05T02:25:46.210Z,0
2017-08-05T02:26:46.895Z,0
2017-08-05T02:27:46.719Z,0
2017-08-05T02:28:46.530Z,0
2017-08-05T02:29:46.527Z,0
2017-08-05T02:30:46.543Z,0
2017-08-05T02:31:46.541Z,0
2017-08-05T02:32:46.184Z,0
2017-08-05T02:33:46.520Z,0
2017-08-05T02:34:46.837Z,0
2017-08-05T02:35:46.804Z,0
2017-08-05T02:36:46.814Z,0
2017-08-05T02:37:46.165Z,0
2017-08-05T02:38:46.158Z,0
2017-08-05T02:39:46.470Z,0
2017-08-05T02:40:46.486Z,0
2017-08-05T02:41:46.154Z,0
2017-08-05T02:42:46.484Z,0
2017-08-05T02:43:46.145Z,0
2017-08-05T02:44:46.444Z,0
2017-08-05T02:45:46.449Z,0
2017-08-05T02:46:46.120Z,0
2017-08-05T02:47:46.442Z,0
2017-08-05T02:48:46.432Z,0
2017-08-05T02:49:46.420Z,0
2017-08-05T02:50:46.450Z,0
2017-08-05T02:51:46.426Z,0
2017-08-05T02:52:46.403Z,0
2017-08-05T02:53:46.107Z,0
2017-08-05T02:54:46.747Z,0
2017-08-05T02:55:46.732Z,0
2017-08-05T02:56:46.382Z,0
2017-08-05T02:57:46.748Z,0
2017-08-05T02:58:46.372Z,0
2017-08-05T02:59:46.387Z,0
2017-08-05T03:00:46.379Z,0
2017-08-05T03:01:46.381Z,0
2017-08-05T03:02:46.037Z,0
2017-08-05T03:03:46.356Z,0
2017-08-05T03:04:46.374Z,0
2017-08-05T03:05:46.034Z,0
2017-08-05T03:06:46.718Z,0
2017-08-05T03:07:46.348Z,0
2017-08-05T03:08:46.677Z,0
2017-08-05T03:09:46.649Z,0
2017-08-05T03:10:46.646Z,0
2017-08-05T03:11:46.633Z,0
2017-08-05T03:12:46.306Z,0
2017-08-05T03:13:45.981Z,0
2017-08-05T03:14:46.639Z,0
2017-08-05T03:15:46.671Z,0
2017-08-05T03:16:46.284Z,0
2017-08-05T03:17:45.989Z,0
2017-08-05T03:18:46.276Z,0
2017-08-05T03:19:46.301Z,0
2017-08-05T03:20:46.287Z,0
2017-08-05T03:21:46.266Z,0
2017-08-05T03:22:46.278Z,0
2017-08-05T03:23:45.949Z,0
2017-08-05T03:24:46.267Z,0
2017-08-05T03:25:46.564Z,0
2017-08-05T03:26:46.584Z,0
2017-08-05T03:27:46.570Z,0
2017-08-05T03:28:45.918Z,0
2017-08-05T03:29:45.900Z,0
2017-08-05T03:30:45.908Z,0
2017-08-05T03:31:46.212Z,0
2017-08-05T03:32:46.561Z,0
2017-08-05T03:33:46.232Z,0
2017-08-05T03:34:46.514Z,0
2017-08-05T03:35:46.192Z,0
2017-08-05T03:36:46.528Z,0
2017-08-05T03:37:46.193Z,5
2017-08-05T03:38:46.194Z,5
2017-08-05T03:39:46.238Z,5
2017-08-05T03:40:46.187Z,5
2017-08-05T03:41:46.168Z,5
2017-08-05T03:42:45.828Z,5
2017-08-05T03:43:46.484Z,5
2017-08-05T03:44:46.486Z,5
2017-08-05T03:45:45.843Z,5
2017-08-05T03:46:45.836Z,10
2017-08-05T03:47:45.841Z,10
2017-08-05T03:48:46.493Z,10
2017-08-05T03:49:45.802Z,10
2017-08-05T03:50:46.117Z,10
2017-08-05T03:51:45.506Z,10
2017-08-05T03:52:46.445Z,15
2017-08-05T03:53:46.448Z,15
2017-08-05T03:54:45.797Z,15
2017-08-05T03:55:46.094Z,15
2017-08-05T03:56:45.755Z,15
2017-08-05T03:57:45.749Z,15
2017-08-05T03:58:45.752Z,20
2017-08-05T03:59:46.442Z,20
2017-08-05T04:00:46.399Z,20
2017-08-05T04:01:45.404Z,20
2017-08-05T04:02:46.372Z,20
2017-08-05T04:03:45.720Z,25
2017-08-05T04:04:46.093Z,25
2017-08-05T04:05:45.707Z,25
2017-08-05T04:06:46.065Z,25
2017-08-05T04:07:46.013Z,30
2017-08-05T04:08:45.697Z,30
2017-08-05T04:09:46.043Z,30
2017-08-05T04:10:45.753Z,30
2017-08-05T04:11:45.380Z,30
2017-08-05T04:12:45.665Z,35
2017-08-05T04:13:46.362Z,35
2017-08-05T04:14:46.298Z,35
2017-08-05T04:15:45.974Z,35
2017-08-05T04:16:46.330Z,35
2017-08-05T04:17:45.666Z,35
2017-08-05T04:18:45.992Z,40
2017-08-05T04:19:45.950Z,40
2017-08-05T04:20:45.961Z,40
2017-08-05T04:21:46.298Z,40
2017-08-05T04:22:46.260Z,40
2017-08-05T04:23:46.262Z,45
2017-08-05T04:24:45.984Z,45
2017-08-05T04:25:45.286Z,45
2017-08-05T04:26:45.612Z,45
2017-08-05T04:27:45.930Z,45
2017-08-05T04:28:45.598Z,45
2017-08-05T04:29:45.934Z,50
2017-08-05T04:30:45.249Z,50
2017-08-05T04:31:45.889Z,50
2017-08-05T04:32:45.881Z,50
2017-08-05T04:33:45.913Z,50
2017-08-05T04:34:45.911Z,55
2017-08-05T04:35:45.568Z,55
2017-08-05T04:36:45.560Z,55
2017-08-05T04:37:46.178Z,55
2017-08-05T04:38:45.893Z,55
2017-08-05T04:39:45.537Z,60
2017-08-05T04:40:45.870Z,60
2017-08-05T04:41:46.171Z,60
2017-08-05T04:42:45.182Z,60
2017-08-05T04:43:46.158Z,60
2017-08-05T04:44:45.837Z,60
2017-08-05T04:45:45.809Z,65
2017-08-05T04:46:45.820Z,65
2017-08-05T04:47:45.476Z,65
2017-08-05T04:48:45.484Z,65
2017-08-05T04:49:46.273Z,65
2017-08-05T04:50:46.109Z,65
2017-08-05T04:51:46.107Z,65
2017-08-05T04:52:46.118Z,70
2017-08-05T04:53:45.777Z,70
2017-08-05T04:54:45.764Z,70
2017-08-05T04:55:46.100Z,70
2017-08-05T04:56:46.074Z,70
2017-08-05T04:57:46.066Z,70
2017-08-05T04:58:45.756Z,70
2017-08-05T04:59:46.054Z,75
2017-08-05T05:00:45.089Z,75
2017-08-05T05:01:45.748Z,75
2017-08-05T05:02:45.747Z,75
2017-08-05T05:03:46.038Z,75
2017-08-05T05:04:45.720Z,75
2017-08-05T05:05:45.725Z,80
2017-08-05T05:06:45.262Z,80
2017-08-05T05:07:45.722Z,80
2017-08-05T05:08:45.379Z,80
2017-08-05T05:09:45.361Z,80
2017-08-05T05:10:45.366Z,80
2017-08-05T05:11:45.030Z,80
2017-08-05T05:12:45.683Z,80
2017-08-05T05:13:45.661Z,80
2017-08-05T05:14:45.671Z,80
2017-08-05T05:15:45.676Z,85
2017-08-05T05:16:45.985Z,85
2017-08-05T05:17:45.020Z,85
2017-08-05T05:18:45.638Z,85
2017-08-05T05:19:45.316Z,85
2017-08-05T05:20:45.659Z,85
2017-08-05T05:21:45.656Z,85
2017-08-05T05:22:45.317Z,85
2017-08-05T05:23:45.641Z,85
2017-08-05T05:24:45.292Z,90
2017-08-05T05:25:45.308Z,90
2017-08-05T05:26:45.354Z,90
2017-08-05T05:27:45.596Z,90
2017-08-05T05:28:45.597Z,90
2017-08-05T05:29:45.589Z,90
2017-08-05T05:30:45.625Z,90
2017-08-05T05:31:44.949Z,90
2017-08-05T05:32:45.596Z,95
2017-08-05T05:33:45.566Z,95
2017-08-05T05:34:45.576Z,95
2017-08-05T05:35:45.578Z,100
2017-08-05T05:36:45.558Z,105
2017-08-05T05:37:45.614Z,120
2017-08-05T05:38:45.554Z,125
2017-08-05T05:39:45.280Z,140
2017-08-05T05:40:45.608Z,150
2017-08-05T05:41:45.573Z,155
2017-08-05T05:42:45.867Z,155
2017-08-05T05:43:45.863Z,150
2017-08-05T05:44:45.543Z,140
2017-08-05T05:45:45.855Z,135
2017-08-05T05:46:45.196Z,120
2017-08-05T05:47:45.537Z,115
2017-08-05T05:48:45.826Z,120
2017-08-05T05:49:45.567Z,115
2017-08-05T05:50:45.201Z,115
2017-08-05T05:51:45.179Z,105
2017-08-05T05:52:45.187Z,105
2017-08-05T05:53:45.485Z,100
2017-08-05T05:54:44.849Z,105
2017-08-05T05:55:45.803Z,105
2017-08-05T05:56:45.484Z,105
2017-08-05T05:57:45.177Z,105
2017-08-05T05:58:45.981Z,105
2017-08-05T05:59:45.162Z,105
2017-08-05T06:00:45.162Z,105
2017-08-05T06:01:45.505Z,105
2017-08-05T06:02:45.787Z,105
2017-08-05T06:03:45.481Z,105
2017-08-05T06:04:45.494Z,105
2017-08-05T06:05:45.447Z,105
2017-08-05T06:06:45.456Z,105
2017-08-05T06:07:45.474Z,110
2017-08-05T06:08:45.479Z,110
2017-08-05T06:09:45.486Z,110
2017-08-05T06:10:45.127Z,110
2017-08-05T06:11:45.783Z,110
2017-08-05T06:12:45.779Z,110
2017-08-05T06:13:45.118Z,110
2017-08-05T06:14:45.414Z,110
2017-08-05T06:15:45.415Z,110
2017-08-05T06:16:45.427Z,110
2017-08-05T06:17:45.087Z,110
2017-08-05T06:18:45.401Z,110
2017-08-05T06:19:45.075Z,110
2017-08-05T06:20:45.769Z,110
2017-08-05T06:21:45.725Z,110
2017-08-05T06:22:45.709Z,110
2017-08-05T06:23:45.390Z,110
2017-08-05T06:24:45.383Z,110
2017-08-05T06:25:45.718Z,110
2017-08-05T06:26:45.053Z,115
2017-08-05T06:27:45.698Z,115
2017-08-05T06:28:45.696Z,115
2017-08-05T06:29:45.682Z,115
2017-08-05T06:30:45.693Z,115
2017-08-05T06:31:45.699Z,115
2017-08-05T06:32:45.035Z,115
2017-08-05T06:33:45.062Z,115
2017-08-05T06:34:45.410Z,120
2017-08-05T06:35:45.030Z,120
2017-08-05T06:36:45.032Z,125
2017-08-05T06:37:45.039Z,135
2017-08-05T06:38:45.333Z,135
2017-08-05T06:39:45.098Z,150
2017-08-05T06:40:45.028Z,180
2017-08-05T06:41:45.006Z,205
2017-08-05T06:42:45.364Z,200
2017-08-05T06:43:45.321Z,175
2017-08-05T06:44:45.023Z,195
2017-08-05T06:45:45.661Z,195
2017-08-05T06:46:45.636Z,205
2017-08-05T06:47:44.991Z,245
2017-08-05T06:48:45.328Z,230
2017-08-05T06:49:45.340Z,240
2017-08-05T06:50:45.646Z,235
2017-08-05T06:51:45.533Z,215
2017-08-05T06:52:45.302Z,270
2017-08-05T06:53:45.325Z,315
2017-08-05T06:54:45.311Z,300
2017-08-05T06:55:45.344Z,315
2017-08-05T06:56:45.004Z,330
2017-08-05T06:57:44.978Z,345
2017-08-05T06:58:44.988Z,350
2017-08-05T06:59:45.651Z,345
2017-08-05T07:00:45.318Z,345
2017-08-05T07:01:45.302Z,345
2017-08-05T07:02:45.644Z,350
2017-08-05T07:03:45.296Z,350
2017-08-05T07:04:45.623Z,350
2017-08-05T07:05:44.993Z,350
2017-08-05T07:06:45.305Z,360
2017-08-05T07:07:45.040Z,360
2017-08-05T07:08:45.025Z,365
2017-08-05T07:09:45.314Z,370
2017-08-05T07:10:45.337Z,390
2017-08-05T07:11:45.313Z,390
2017-08-05T07:12:45.007Z,370
2017-08-05T07:13:45.320Z,365
2017-08-05T07:14:45.322Z,365
2017-08-05T07:15:45.045Z,365
2017-08-05T07:16:45.354Z,370
2017-08-05T07:17:45.675Z,380
2017-08-05T07:18:45.338Z,390
2017-08-05T07:19:45.378Z,385
2017-08-05T07:20:45.353Z,380
2017-08-05T07:21:45.030Z,385
2017-08-05T07:22:45.429Z,385
2017-08-05T07:23:45.044Z,375
2017-08-05T07:24:45.055Z,370
2017-08-05T07:25:45.070Z,380
2017-08-05T07:26:45.062Z,390
2017-08-05T07:27:45.707Z,400
2017-08-05T07:28:45.067Z,400
2017-08-05T07:29:45.394Z,400
2017-08-05T07:30:45.106Z,405
2017-08-05T07:31:45.109Z,415
2017-08-05T07:32:45.106Z,405
2017-08-05T07:33:45.126Z,390
2017-08-05T07:34:45.459Z,360
2017-08-05T07:35:45.791Z,305
2017-08-05T07:36:45.457Z,245
2017-08-05T07:37:45.473Z,205
2017-08-05T07:38:45.141Z,185
2017-08-05T07:39:45.784Z,170
2017-08-05T07:40:44.864Z,170
2017-08-05T07:41:45.485Z,165
2017-08-05T07:42:46.905Z,160
2017-08-05T07:43:45.816Z,155
2017-08-05T07:44:45.191Z,155
2017-08-05T07:45:45.493Z,150
2017-08-05T07:46:45.186Z,150
2017-08-05T07:47:45.518Z,145
2017-08-05T07:48:45.531Z,145
2017-08-05T07:49:45.222Z,140
2017-08-05T07:50:45.229Z,140
2017-08-05T07:51:45.855Z,140
2017-08-05T07:52:45.910Z,140
2017-08-05T07:53:45.228Z,140
2017-08-05T07:54:45.558Z,140
2017-08-05T07:55:45.562Z,140
2017-08-05T07:56:45.576Z,140
2017-08-05T07:57:45.592Z,145
2017-08-05T07:58:46.713Z,165
2017-08-05T07:59:45.628Z,195
2017-08-05T08:00:45.909Z,210
2017-08-05T08:01:45.921Z,185
2017-08-05T08:02:45.284Z,155
2017-08-05T08:03:45.318Z,170
2017-08-05T08:04:45.340Z,170
2017-08-05T08:05:45.613Z,165
2017-08-05T08:06:45.633Z,160
2017-08-05T08:07:45.003Z,145
2017-08-05T08:08:45.970Z,145
2017-08-05T08:09:45.670Z,145
2017-08-05T08:10:45.345Z,145
2017-08-05T08:11:45.326Z,140
2017-08-05T08:12:45.351Z,140
2017-08-05T08:13:45.343Z,140
2017-08-05T08:14:46.016Z,145
2017-08-05T08:15:45.713Z,145
2017-08-05T08:16:45.345Z,145
2017-08-05T08:17:45.356Z,145
2017-08-05T08:18:45.032Z,155
2017-08-05T08:19:45.698Z,155
2017-08-05T08:20:46.002Z,160
2017-08-05T08:21:45.685Z,165
2017-08-05T08:22:45.702Z,180
2017-08-05T08:23:45.687Z,205
2017-08-05T08:24:46.029Z,190
2017-08-05T08:25:45.372Z,200
2017-08-05T08:26:45.729Z,170
2017-08-05T08:27:46.037Z,180
2017-08-05T08:28:45.767Z,175
2017-08-05T08:29:45.408Z,155
2017-08-05T08:30:46.047Z,155
2017-08-05T08:31:45.412Z,160
2017-08-05T08:32:45.431Z,165
2017-08-05T08:33:45.393Z,190
2017-08-05T08:34:46.048Z,215
2017-08-05T08:35:45.725Z,230
2017-08-05T08:36:45.412Z,240
2017-08-05T08:37:45.786Z,220
2017-08-05T08:38:45.764Z,200
2017-08-05T08:39:45.754Z,180
2017-08-05T08:40:45.737Z,170
2017-08-05T08:41:45.748Z,180
2017-08-05T08:42:45.739Z,195
2017-08-05T08:43:45.428Z,215
2017-08-05T08:44:46.097Z,240
2017-08-05T08:45:46.087Z,235
2017-08-05T08:46:46.266Z,230
2017-08-05T08:47:46.106Z,220
2017-08-05T08:48:46.089Z,220
2017-08-05T08:49:45.806Z,220
2017-08-05T08:50:45.455Z,200
2017-08-05T08:51:46.080Z,210
2017-08-05T08:52:45.447Z,225
2017-08-05T08:53:45.446Z,235
2017-08-05T08:54:46.091Z,235
2017-08-05T08:55:45.770Z,235
2017-08-05T08:56:45.769Z,280
2017-08-05T08:57:46.118Z,340
2017-08-05T08:58:46.124Z,395
2017-08-05T08:59:46.098Z,475
2017-08-05T09:00:45.837Z,485
2017-08-05T09:01:45.506Z,465
2017-08-05T09:02:45.785Z,490
2017-08-05T09:03:46.137Z,460
2017-08-05T09:04:45.804Z,460
2017-08-05T09:05:46.137Z,490
2017-08-05T09:06:45.485Z,495
2017-08-05T09:07:46.145Z,515
2017-08-05T09:08:45.794Z,525
2017-08-05T09:09:45.477Z,525
2017-08-05T09:10:45.511Z,520
2017-08-05T09:11:46.163Z,500
2017-08-05T09:12:45.815Z,495
2017-08-05T09:13:46.143Z,505
2017-08-05T09:14:45.200Z,505
2017-08-05T09:15:45.484Z,495
2017-08-05T09:16:45.503Z,485
2017-08-05T09:17:46.029Z,455
2017-08-05T09:18:45.512Z,445
2017-08-05T09:19:45.203Z,400
2017-08-05T09:20:46.148Z,390
2017-08-05T09:21:46.190Z,415
2017-08-05T09:22:45.183Z,445
2017-08-05T09:23:45.838Z,535
2017-08-05T09:24:45.583Z,565
2017-08-05T09:25:45.875Z,570
2017-08-05T09:26:45.720Z,585
2017-08-05T09:27:47.248Z,565
2017-08-05T09:28:45.992Z,555
2017-08-05T09:29:45.885Z,515
2017-08-05T09:30:46.028Z,505
2017-08-05T09:31:45.883Z,465
2017-08-05T09:32:45.222Z,440
2017-08-05T09:33:45.222Z,395
2017-08-05T09:34:45.864Z,400
2017-08-05T09:35:46.000Z,385
2017-08-05T09:36:45.960Z,410
2017-08-05T09:37:45.896Z,345
2017-08-05T09:38:45.917Z,295
2017-08-05T09:39:45.887Z,305
2017-08-05T09:40:45.884Z,305
2017-08-05T09:41:45.904Z,245
2017-08-05T09:42:45.586Z,260
2017-08-05T09:43:45.602Z,315
2017-08-05T09:44:45.610Z,315
2017-08-05T09:45:45.610Z,350
2017-08-05T09:46:46.233Z,355
2017-08-05T09:47:46.221Z,365
2017-08-05T09:48:45.599Z,365
2017-08-05T09:49:46.232Z,355
2017-08-05T09:50:45.622Z,385
2017-08-05T09:51:46.270Z,410
2017-08-05T09:52:45.944Z,430
2017-08-05T09:53:45.288Z,380
2017-08-05T09:54:45.915Z,405
2017-08-05T09:55:45.954Z,360
2017-08-05T09:56:45.958Z,325
2017-08-05T09:57:45.631Z,300
2017-08-05T09:58:46.253Z,315
2017-08-05T09:59:46.258Z,325
2017-08-05T10:00:45.649Z,345
2017-08-05T10:01:45.941Z,390
2017-08-05T10:02:46.278Z,385
2017-08-05T10:03:45.949Z,380
2017-08-05T10:04:45.670Z,415
2017-08-05T10:05:46.292Z,480
2017-08-05T10:06:45.990Z,490
2017-08-05T10:07:46.293Z,465
2017-08-05T10:08:45.967Z,465
2017-08-05T10:09:45.702Z,450
2017-08-05T10:10:46.019Z,395
2017-08-05T10:11:45.981Z,355
2017-08-05T10:12:45.969Z,345
2017-08-05T10:13:45.993Z,365
2017-08-05T10:14:45.687Z,420
2017-08-05T10:15:46.007Z,370
2017-08-05T10:16:46.013Z,315
2017-08-05T10:17:46.007Z,310
2017-08-05T10:18:45.689Z,335
2017-08-05T10:19:46.316Z,325
2017-08-05T10:20:45.684Z,335
2017-08-05T10:21:46.331Z,350
2017-08-05T10:22:46.031Z,390
2017-08-05T10:23:46.343Z,445
2017-08-05T10:24:46.344Z,405
2017-08-05T10:25:46.362Z,360
2017-08-05T10:26:45.710Z,290
2017-08-05T10:27:46.357Z,230
2017-08-05T10:28:46.340Z,210
2017-08-05T10:29:46.368Z,200
2017-08-05T10:30:46.026Z,255
2017-08-05T10:31:46.035Z,320
2017-08-05T10:32:46.381Z,365
2017-08-05T10:33:46.362Z,405
2017-08-05T10:34:46.060Z,395
2017-08-05T10:35:45.726Z,345
2017-08-05T10:36:46.067Z,280
2017-08-05T10:37:46.049Z,240
2017-08-05T10:38:45.409Z,240
2017-08-05T10:39:46.400Z,275
2017-08-05T10:40:46.403Z,290
2017-08-05T10:41:45.800Z,275
2017-08-05T10:42:46.090Z,255
2017-08-05T10:43:46.091Z,205
2017-08-05T10:44:46.426Z,180
2017-08-05T10:45:46.087Z,205
2017-08-05T10:46:45.757Z,285
2017-08-05T10:47:46.405Z,345
2017-08-05T10:48:46.457Z,325
2017-08-05T10:49:45.791Z,330
2017-08-05T10:50:45.449Z,355
2017-08-05T10:51:46.421Z,345
2017-08-05T10:52:46.097Z,350
2017-08-05T10:53:46.437Z,305
2017-08-05T10:54:45.782Z,270
2017-08-05T10:55:46.428Z,195
2017-08-05T10:56:46.460Z,160
2017-08-05T10:57:46.136Z,150
2017-08-05T10:58:45.801Z,125
2017-08-05T10:59:46.450Z,125
2017-08-05T11:00:46.471Z,110
2017-08-05T11:01:46.131Z,115
2017-08-05T11:02:45.491Z,135
2017-08-05T11:03:46.135Z,150
2017-08-05T11:04:46.452Z,195
2017-08-05T11:05:45.818Z,225
2017-08-05T11:06:46.464Z,205
2017-08-05T11:07:46.473Z,160
2017-08-05T11:08:46.177Z,140
2017-08-05T11:09:46.499Z,130
2017-08-05T11:10:45.831Z,130
2017-08-05T11:11:45.520Z,125
2017-08-05T11:12:46.505Z,125
2017-08-05T11:13:46.500Z,125
2017-08-05T11:14:46.503Z,125
2017-08-05T11:15:45.847Z,125
2017-08-05T11:16:45.869Z,125
2017-08-05T11:17:46.167Z,125
2017-08-05T11:18:45.876Z,125
2017-08-05T11:19:46.177Z,125
2017-08-05T11:20:45.870Z,125
2017-08-05T11:21:46.515Z,125
2017-08-05T11:22:45.856Z,125
2017-08-05T11:23:46.201Z,125
2017-08-05T11:24:45.864Z,125
2017-08-05T11:25:46.513Z,125
2017-08-05T11:26:45.567Z,125
2017-08-05T11:27:46.238Z,125
2017-08-05T11:28:46.531Z,125
2017-08-05T11:29:46.224Z,125
2017-08-05T11:30:45.880Z,125
2017-08-05T11:31:45.882Z,125
2017-08-05T11:32:46.217Z,125
2017-08-05T11:33:45.902Z,130
2017-08-05T11:34:46.239Z,130
2017-08-05T11:35:46.473Z,130
2017-08-05T11:36:46.366Z,135
2017-08-05T11:37:46.539Z,125
2017-08-05T11:38:46.561Z,125
2017-08-05T11:39:46.222Z,135
2017-08-05T11:40:45.922Z,130
2017-08-05T11:41:46.255Z,125
2017-08-05T11:42:45.911Z,120
2017-08-05T11:43:45.953Z,125
2017-08-05T11:44:45.917Z,125
2017-08-05T11:45:46.945Z,145
2017-08-05T11:46:46.244Z,185
2017-08-05T11:47:46.244Z,160
2017-08-05T11:48:46.266Z,155
2017-08-05T11:49:46.583Z,160
2017-08-05T11:50:46.264Z,135
2017-08-05T11:51:45.972Z,150
2017-08-05T11:52:46.590Z,160
2017-08-05T11:53:46.290Z,180
2017-08-05T11:54:45.963Z,190
2017-08-05T11:55:46.613Z,205
2017-08-05T11:56:45.637Z,235
2017-08-05T11:57:46.271Z,265
2017-08-05T11:58:46.295Z,305
2017-08-05T11:59:46.632Z,305
2017-08-05T12:00:46.302Z,360
2017-08-05T12:01:46.279Z,370
2017-08-05T12:02:46.285Z,405
2017-08-05T12:03:45.971Z,440
2017-08-05T12:04:46.313Z,425
2017-08-05T12:05:45.988Z,380
2017-08-05T12:06:46.310Z,410
2017-08-05T12:07:45.978Z,440
2017-08-05T12:08:45.663Z,455
2017-08-05T12:09:46.306Z,425
2017-08-05T12:10:45.998Z,430
2017-08-05T12:11:46.354Z,460
2017-08-05T12:12:46.345Z,450
2017-08-05T12:13:46.670Z,445
2017-08-05T12:14:46.311Z,480
2017-08-05T12:15:46.698Z,490
2017-08-05T12:16:46.325Z,515
2017-08-05T12:17:46.004Z,500
2017-08-05T12:18:46.018Z,420
2017-08-05T12:19:46.370Z,310
2017-08-05T12:20:46.678Z,265
2017-08-05T12:21:46.359Z,255
2017-08-05T12:22:46.353Z,235
2017-08-05T12:23:46.409Z,220
2017-08-05T12:24:46.379Z,200
2017-08-05T12:25:46.063Z,180
2017-08-05T12:26:46.698Z,165
2017-08-05T12:27:46.359Z,150
2017-08-05T12:28:46.391Z,140
2017-08-05T12:29:46.049Z,145
2017-08-05T12:30:46.693Z,135
2017-08-05T12:31:45.748Z,135
2017-08-05T12:32:46.065Z,135
2017-08-05T12:33:46.383Z,135
2017-08-05T12:34:46.393Z,135
2017-08-05T12:35:46.407Z,135
2017-08-05T12:36:46.780Z,135
2017-08-05T12:37:46.402Z,140
2017-08-05T12:38:46.402Z,140
2017-08-05T12:39:46.103Z,145
2017-08-05T12:40:46.762Z,150
2017-08-05T12:41:46.420Z,155
2017-08-05T12:42:46.756Z,160
2017-08-05T12:43:45.779Z,145
2017-08-05T12:44:46.459Z,140
2017-08-05T12:45:46.126Z,150
2017-08-05T12:46:46.430Z,185
2017-08-05T12:47:46.781Z,210
2017-08-05T12:48:46.508Z,195
2017-08-05T12:49:46.143Z,170
2017-08-05T12:50:46.139Z,160
2017-08-05T12:51:46.783Z,180
2017-08-05T12:52:46.140Z,210
2017-08-05T12:53:46.805Z,190
2017-08-05T12:54:46.532Z,165
2017-08-05T12:55:46.469Z,225
2017-08-05T12:56:46.800Z,235
2017-08-05T12:57:46.803Z,285
2017-08-05T12:58:46.485Z,270
2017-08-05T12:59:46.800Z,230
2017-08-05T13:00:46.816Z,225
2017-08-05T13:01:46.187Z,215
2017-08-05T13:02:46.221Z,195
2017-08-05T13:03:46.510Z,185
2017-08-05T13:04:45.949Z,195
2017-08-05T13:05:46.528Z,205
2017-08-05T13:06:45.868Z,205
2017-08-05T13:07:46.847Z,225
2017-08-05T13:08:46.530Z,225
2017-08-05T13:09:46.224Z,230
2017-08-05T13:10:45.883Z,210
2017-08-05T13:11:46.862Z,165
2017-08-05T13:12:46.573Z,135
2017-08-05T13:13:46.227Z,130
2017-08-05T13:14:45.912Z,135
2017-08-05T13:15:46.905Z,140
2017-08-05T13:16:46.934Z,155
2017-08-05T13:17:46.556Z,215
2017-08-05T13:18:46.546Z,200
2017-08-05T13:19:46.872Z,155
2017-08-05T13:20:46.911Z,140
2017-08-05T13:21:46.242Z,135
2017-08-05T13:22:46.562Z,135
2017-08-05T13:23:46.572Z,165
2017-08-05T13:24:46.900Z,200
2017-08-05T13:25:46.901Z,190
2017-08-05T13:26:46.909Z,190
2017-08-05T13:27:46.912Z,210
2017-08-05T13:28:46.602Z,285
2017-08-05T13:29:46.611Z,365
2017-08-05T13:30:46.006Z,375
2017-08-05T13:31:46.319Z,375
2017-08-05T13:32:46.913Z,355
2017-08-05T13:33:46.312Z,330
2017-08-05T13:34:46.925Z,380
2017-08-05T13:35:46.945Z,385
2017-08-05T13:36:46.940Z,415
2017-08-05T13:37:47.361Z,400
2017-08-05T13:38:46.813Z,375
2017-08-05T13:39:47.209Z,350
2017-08-05T13:40:46.488Z,360
2017-08-05T13:41:46.524Z,390
2017-08-05T13:42:47.596Z,410
2017-08-05T13:43:46.551Z,390
2017-08-05T13:44:46.666Z,370
2017-08-05T13:45:46.991Z,330
2017-08-05T13:46:46.337Z,330
2017-08-05T13:47:47.029Z,335
2017-08-05T13:48:47.000Z,295
2017-08-05T13:49:46.369Z,325
2017-08-05T13:50:47.007Z,345
2017-08-05T13:51:46.349Z,390
2017-08-05T13:52:46.375Z,475
2017-08-05T13:53:46.402Z,540
2017-08-05T13:54:46.396Z,465
2017-08-05T13:55:47.016Z,385
2017-08-05T13:56:47.045Z,335
2017-08-05T13:57:46.722Z,305
2017-08-05T13:58:47.028Z,345
2017-08-05T13:59:46.382Z,290
2017-08-05T14:00:47.041Z,305
2017-08-05T14:01:47.039Z,295
2017-08-05T14:02:46.739Z,305
2017-08-05T14:03:46.755Z,360
2017-08-05T14:04:46.742Z,355
2017-08-05T14:05:46.417Z,400